• Join FlightAware (Why Join?)
  • Login
  • US Flag 
10:03PM EDT


 

Airport Tracker/Info


-or-


 

Live Flight TrackerFlight Track Log ✈ TAM3853 ✈ 31-Jul-2013 ✈ SBBR / BSB - SBCF / CNF

Flight Track Log - Related Links

Times and Time Zones

All times are in EDT time to prevent confusion due to time zone crossing. See the TAM3853 flight status page for this flight to view local times or setup timezone preferences in your user account.

Time Position Orientation Groundspeed Altitude Reporting Facility
EDT Latitude Longitude Course Direction KTS MPH feet Rate Location/Type
09:44PM -17.7874 -45.9308 136° Southeast  Level Estimated
09:45PM -17.8473 -45.8682 135° Southeast  Level Estimated
09:46PM -17.9071 -45.8056 135° Southeast  Level Estimated
09:47PM -17.9669 -45.7429 135° Southeast  Level Estimated
09:48PM -18.0267 -45.6802 135° Southeast  Level Estimated
09:49PM -18.0864 -45.6174 135° Southeast  Level Estimated
09:50PM -18.1462 -45.5546 135° Southeast  Level Estimated
09:51PM -18.2059 -45.4917 135° Southeast  Level Estimated
09:52PM -18.2656 -45.4288 135° Southeast  Level Estimated
09:53PM -18.3253 -45.3659 135° Southeast  Level Estimated
09:54PM -18.3849 -45.3029 135° Southeast  Level Estimated
09:55PM -18.4445 -45.2399 135° Southeast  Level Estimated
09:56PM -18.5041 -45.1768 135° Southeast  Level Estimated
09:57PM -18.5637 -45.1137 135° Southeast  Level Estimated
09:58PM -18.6233 -45.0506 135° Southeast  Level Estimated
09:59PM -18.6828 -44.9874 135° Southeast  Level Estimated
10:00PM -18.7424 -44.9241 135° Southeast  Level Estimated
10:01PM -18.8019 -44.8608 135° Southeast  Level Estimated
10:02PM -18.8614 -44.7975 135° Southeast  Level Estimated
10:03PM -18.9208 -44.7341 135° Southeast  Level Estimated
10:04PM -18.9803 -44.6707 135° Southeast  Level Estimated
10:05PM -19.0397 -44.6072 135° Southeast  Level Estimated
10:06PM -19.0991 -44.5437 135° Southeast  Level Estimated
10:07PM -19.1585 -44.4801 135° Southeast  Level Estimated
10:08PM -19.2178 -44.4165 135° Southeast  Level Estimated
10:09PM -19.2772 -44.3529 135° Southeast  Level Estimated
10:10PM -19.3365 -44.2892 135° Southeast  Level Estimated
10:11PM -19.3958 -44.2254 135° Southeast  Level Estimated
10:12PM -19.4550 -44.1616 135° Southeast  Level Estimated
10:13PM -19.5143 -44.0978 135° Southeast  Level Estimated
10:14PM -19.5735 -44.0339 135° Southeast  Level Estimated
10:15PM -19.6327 -43.9700 135° Southeast  Level Estimated
10:16PM -19.6338 -43.9689 134° Southeast  Level Estimated
10:17PM -19.6338 -43.9689 90° East  Level Estimated
10:18PM -19.6338 -43.9689 90° East  Level Estimated
10:19PM -19.6338 -43.9689 90° East  Level Estimated
10:20PM -19.6338 -43.9689 90° East  Level Estimated
10:21PM -19.6338 -43.9689 90° East  Level Estimated
10:22PM -19.6338 -43.9689 90° East  Level Estimated
10:23PM -19.6338 -43.9689 90° East  Level Estimated
10:24PM -19.6338 -43.9689 90° East  Level Estimated
10:25PM -19.6338 -43.9689 90° East  Level Estimated
10:26PM -19.6338 -43.9689 90° East  Level Estimated
10:27PM -19.6338 -43.9689 90° East  Level Estimated
10:28PM -19.6338 -43.9689 90° East  Level Estimated
10:29PM -19.6338 -43.9689 90° East  Level Estimated
10:30PM -19.6338 -43.9689 90° East  Level Estimated
10:31PM -19.6338 -43.9689 90° East  Level Estimated